createdAt,value
2019-05-02T00:00:18.129Z,8.93
2019-05-02T00:02:46.349Z,14.55
2019-05-02T00:05:15.970Z,9.12
2019-05-02T00:07:44.187Z,11.12
2019-05-02T00:10:14.091Z,8.05
2019-05-02T00:12:43.041Z,9.68
2019-05-02T00:15:11.258Z,7.78
2019-05-02T00:17:39.798Z,10.60
2019-05-02T00:20:08.060Z,13.03
2019-05-02T00:22:36.341Z,8.98
2019-05-02T00:25:06.207Z,11.38
2019-05-02T00:27:37.798Z,14.00
2019-05-02T00:30:07.051Z,12.58
2019-05-02T00:32:35.261Z,11.15
2019-05-02T00:35:04.142Z,13.55
2019-05-02T00:37:32.666Z,12.73
2019-05-02T00:40:00.884Z,13.98
2019-05-02T00:42:29.114Z,12.90
2019-05-02T00:44:57.318Z,14.73
2019-05-02T00:47:29.871Z,15.77
2019-05-02T00:49:58.086Z,14.73
2019-05-02T00:52:26.306Z,14.95
2019-05-02T00:54:54.945Z,15.75
2019-05-02T00:57:24.451Z,16.50
2019-05-02T00:59:52.985Z,16.67
2019-05-02T01:02:23.216Z,16.47
2019-05-02T01:04:51.695Z,18.87
2019-05-02T01:07:25.030Z,21.68
2019-05-02T01:09:50.234Z,20.97
2019-05-02T01:12:26.083Z,27.13
2019-05-02T01:14:48.435Z,21.20
2019-05-02T01:17:16.819Z,25.55
2019-05-02T01:19:47.309Z,24.20
2019-05-02T01:22:16.259Z,23.62
2019-05-02T01:24:45.464Z,22.00
2019-05-02T01:27:23.885Z,23.35
2019-05-02T01:30:11.844Z,24.07
2019-05-02T01:32:41.710Z,24.52
2019-05-02T01:35:14.547Z,26.77
2019-05-02T01:38:00.533Z,27.05
2019-05-02T01:40:28.997Z,25.45
2019-05-02T01:42:57.290Z,23.45
2019-05-02T01:45:25.858Z,24.05
2019-05-02T01:47:54.058Z,24.23
2019-05-02T01:50:22.274Z,28.70
2019-05-02T01:52:53.750Z,25.02
2019-05-02T01:55:21.254Z,27.60
2019-05-02T01:57:50.589Z,22.55
2019-05-02T02:00:18.818Z,22.35
2019-05-02T02:02:47.031Z,30.72
2019-05-02T02:05:15.237Z,24.35
2019-05-02T02:07:43.462Z,28.73
2019-05-02T02:10:14.900Z,26.68
2019-05-02T02:13:02.210Z,27.50
2019-05-02T02:15:11.551Z,28.42
2019-05-02T02:17:40.145Z,28.20
2019-05-02T02:20:14.143Z,28.98
2019-05-02T02:22:59.866Z,27.50
2019-05-02T02:25:32.238Z,26.82
2019-05-02T02:30:29.560Z,31.95
2019-05-02T02:33:00.730Z,30.40
2019-05-02T02:35:28.533Z,30.07
2019-05-02T02:37:56.769Z,29.70
2019-05-02T02:40:32.781Z,27.93
2019-05-02T02:42:55.241Z,31.55
2019-05-02T02:45:29.871Z,34.23
2019-05-02T02:47:59.846Z,33.45
2019-05-02T02:50:28.304Z,35.87
2019-05-02T02:52:56.515Z,36.83
2019-05-02T02:55:25.032Z,32.45
2019-05-02T02:57:58.384Z,35.60
2019-05-02T03:00:23.227Z,34.70
2019-05-02T03:02:51.439Z,39.40
2019-05-02T03:05:25.863Z,37.85
2019-05-02T03:07:49.926Z,36.00
2019-05-02T03:10:18.450Z,39.83
2019-05-02T03:12:48.363Z,36.40
2019-05-02T03:15:20.898Z,38.80
2019-05-02T03:17:48.194Z,42.75
2019-05-02T03:20:16.417Z,40.00
2019-05-02T03:22:44.638Z,40.17
2019-05-02T03:25:18.035Z,43.85
2019-05-02T03:27:43.579Z,41.77
2019-05-02T03:30:28.764Z,43.33
2019-05-02T03:33:02.835Z,43.70
2019-05-02T03:35:18.013Z,48.10
2019-05-02T03:37:44.870Z,51.50
2019-05-02T03:40:11.974Z,44.95
2019-05-02T03:42:44.737Z,43.08
2019-05-02T03:45:10.299Z,42.93
2019-05-02T03:47:43.691Z,45.98
2019-05-02T03:50:09.762Z,44.38
2019-05-02T03:52:43.916Z,44.53
2019-05-02T03:55:08.235Z,42.05
2019-05-02T03:57:39.469Z,45.43
2019-05-02T04:00:13.822Z,42.85
2019-05-02T04:02:37.547Z,43.10
2019-05-02T04:05:06.639Z,39.63
2019-05-02T04:07:40.588Z,40.38
2019-05-02T04:10:13.463Z,48.38
2019-05-02T04:12:37.919Z,41.37
2019-05-02T04:15:09.608Z,45.30
2019-05-02T04:17:37.393Z,40.55
2019-05-02T04:20:09.641Z,41.68
2019-05-02T04:22:42.783Z,47.03
2019-05-02T04:25:07.659Z,44.75
2019-05-02T04:27:36.490Z,42.88
2019-05-02T04:30:11.157Z,43.42
2019-05-02T04:32:36.242Z,40.90
2019-05-02T04:35:05.468Z,44.03
2019-05-02T04:37:34.388Z,41.90
2019-05-02T04:40:11.833Z,45.00
2019-05-02T04:42:39.170Z,43.33
2019-05-02T04:45:21.697Z,46.02
2019-05-02T04:47:39.004Z,42.05
2019-05-02T04:50:17.641Z,39.23
2019-05-02T04:52:46.861Z,43.98
2019-05-02T04:55:20.052Z,43.02
2019-05-02T04:57:46.757Z,40.15
2019-05-02T05:00:11.596Z,38.28
2019-05-02T05:02:39.993Z,39.92
2019-05-02T05:05:08.271Z,36.10
2019-05-02T05:07:41.010Z,36.40
2019-05-02T05:10:08.373Z,36.58
2019-05-02T05:12:38.046Z,37.80
2019-05-02T05:15:07.858Z,37.20
2019-05-02T05:17:37.530Z,34.67
2019-05-02T05:20:13.708Z,41.73
2019-05-02T05:22:44.364Z,39.05
2019-05-02T05:25:12.314Z,43.70
2019-05-02T05:27:38.804Z,36.25
2019-05-02T05:30:14.791Z,38.92
2019-05-02T05:32:37.638Z,38.63
2019-05-02T05:35:09.091Z,36.00
2019-05-02T05:37:38.201Z,33.08
2019-05-02T05:40:08.372Z,40.05
2019-05-02T05:42:37.937Z,40.12
2019-05-02T05:45:09.774Z,32.95
2019-05-02T05:47:37.848Z,37.23
2019-05-02T05:50:08.131Z,37.30
2019-05-02T05:52:38.708Z,36.30
2019-05-02T05:55:07.842Z,40.08
2019-05-02T05:57:38.335Z,36.23
2019-05-02T06:00:11.447Z,36.10
2019-05-02T06:02:52.709Z,38.80
2019-05-02T06:05:08.072Z,41.45
2019-05-02T06:07:41.908Z,36.23
2019-05-02T06:10:07.955Z,35.40
2019-05-02T06:12:36.195Z,35.52
2019-05-02T06:15:05.838Z,31.73
2019-05-02T06:17:34.055Z,37.93
2019-05-02T06:20:02.271Z,34.03
2019-05-02T06:22:30.487Z,35.25
2019-05-02T06:24:58.725Z,34.75
2019-05-02T06:27:30.409Z,31.93
2019-05-02T06:29:57.384Z,33.08
2019-05-02T06:32:25.590Z,33.37
2019-05-02T06:34:53.874Z,31.87
2019-05-02T06:37:22.091Z,28.12
2019-05-02T06:39:50.325Z,30.70
2019-05-02T06:42:18.552Z,30.27
2019-05-02T06:44:46.921Z,31.50
2019-05-02T06:47:15.224Z,32.75
2019-05-02T06:49:43.637Z,27.13
2019-05-02T06:52:11.939Z,28.70
2019-05-02T06:54:40.204Z,31.53
2019-05-02T06:57:08.435Z,27.80
2019-05-02T06:59:36.644Z,28.30
2019-05-02T07:02:05.298Z,34.83
2019-05-02T07:04:33.781Z,29.23
2019-05-02T07:07:02.002Z,35.15
2019-05-02T07:09:40.570Z,35.00
2019-05-02T07:12:01.627Z,34.35
2019-05-02T07:14:30.004Z,35.30
2019-05-02T07:17:15.982Z,31.70
2019-05-02T07:19:51.607Z,33.00
2019-05-02T07:22:19.934Z,30.85
2019-05-02T07:24:48.144Z,33.73
2019-05-02T07:27:16.362Z,33.15
2019-05-02T07:29:44.637Z,32.08
2019-05-02T07:32:13.285Z,36.53
2019-05-02T07:34:44.321Z,34.88
2019-05-02T07:37:12.599Z,36.70
2019-05-02T07:39:42.262Z,32.60
2019-05-02T07:42:10.535Z,38.78
2019-05-02T07:44:38.743Z,47.00
2019-05-02T07:47:06.967Z,36.65
2019-05-02T07:49:35.188Z,29.92
2019-05-02T07:52:03.699Z,30.92
2019-05-02T07:54:32.001Z,30.70
2019-05-02T07:57:02.305Z,33.90
2019-05-02T07:59:30.662Z,37.13
2019-05-02T08:01:58.869Z,40.30
2019-05-02T08:04:27.107Z,36.68
2019-05-02T08:06:55.429Z,45.28
2019-05-02T08:09:23.634Z,40.75
2019-05-02T08:11:51.931Z,40.92
2019-05-02T08:14:20.145Z,41.40
2019-05-02T08:16:48.357Z,41.02
2019-05-02T08:19:16.630Z,45.12
2019-05-02T08:21:44.845Z,45.20
2019-05-02T08:24:13.066Z,43.80
2019-05-02T08:26:53.377Z,40.45
2019-05-02T08:29:23.397Z,45.40
2019-05-02T08:31:51.802Z,44.10
2019-05-02T08:34:22.000Z,41.70
2019-05-02T08:36:50.240Z,41.10
2019-05-02T08:39:18.545Z,50.85
2019-05-02T08:41:51.378Z,42.38
2019-05-02T08:44:18.020Z,43.00
2019-05-02T08:46:51.439Z,45.03
2019-05-02T08:49:18.760Z,44.20
2019-05-02T08:51:46.815Z,44.67
2019-05-02T08:54:15.128Z,48.83
2019-05-02T08:56:43.350Z,39.70
2019-05-02T08:59:11.949Z,39.70
2019-05-02T09:01:40.546Z,41.60
2019-05-02T09:04:09.010Z,44.53
2019-05-02T09:06:37.583Z,38.10
2019-05-02T09:09:08.109Z,40.65
2019-05-02T09:11:37.166Z,41.95
2019-05-02T09:14:05.684Z,42.05
2019-05-02T09:16:33.914Z,38.55
2019-05-02T09:19:02.742Z,38.73
2019-05-02T09:21:35.733Z,41.30
2019-05-02T09:24:02.520Z,38.40
2019-05-02T09:26:36.146Z,42.80
2019-05-02T09:29:05.297Z,41.68
2019-05-02T09:31:31.944Z,43.17
2019-05-02T09:34:02.532Z,40.75
2019-05-02T09:36:32.286Z,38.37
2019-05-02T09:39:02.522Z,34.80
2019-05-02T09:41:34.486Z,33.20
2019-05-02T09:44:02.738Z,39.65
2019-05-02T09:46:32.458Z,37.25
2019-05-02T09:49:02.468Z,35.60
2019-05-02T09:51:32.506Z,33.35
2019-05-02T09:54:02.599Z,40.90
2019-05-02T09:56:32.534Z,39.90
2019-05-02T09:59:06.154Z,40.00
2019-05-02T10:01:32.244Z,42.73
2019-05-02T10:04:02.255Z,36.55
2019-05-02T10:06:32.121Z,43.52
2019-05-02T10:09:02.638Z,42.98
2019-05-02T10:11:32.188Z,42.37
2019-05-02T10:14:02.353Z,36.23
2019-05-02T10:16:31.943Z,40.28
2019-05-02T10:19:09.251Z,30.75
2019-05-02T10:21:31.822Z,32.33
2019-05-02T10:24:01.696Z,30.60
2019-05-02T10:26:32.852Z,38.97
2019-05-02T10:29:02.046Z,35.58
2019-05-02T10:31:35.795Z,38.35
2019-05-02T10:34:02.239Z,37.17
2019-05-02T10:36:32.393Z,38.70
2019-05-02T10:39:01.757Z,37.63
2019-05-02T10:41:33.475Z,42.83
2019-05-02T10:44:02.199Z,40.55
2019-05-02T10:46:37.394Z,40.80
2019-05-02T10:49:06.486Z,39.35
2019-05-02T10:51:34.705Z,37.23
2019-05-02T10:54:04.771Z,35.20
2019-05-02T10:56:33.080Z,41.02
2019-05-02T10:59:02.266Z,34.92
2019-05-02T11:01:32.396Z,33.02
2019-05-02T11:04:04.919Z,33.90
2019-05-02T11:06:37.129Z,36.00
2019-05-02T11:09:06.306Z,40.17
2019-05-02T11:11:33.729Z,37.70
2019-05-02T11:14:05.904Z,36.23
2019-05-02T11:16:37.991Z,37.08
2019-05-02T11:19:13.883Z,35.43
2019-05-02T11:21:53.588Z,34.35
2019-05-02T11:24:14.315Z,39.00
2019-05-02T11:26:42.919Z,37.35
2019-05-02T11:29:12.156Z,32.80
2019-05-02T11:31:42.582Z,32.40
2019-05-02T11:34:12.347Z,38.80
2019-05-02T11:36:42.006Z,37.03
2019-05-02T11:39:18.255Z,34.43
2019-05-02T11:41:42.235Z,33.85
2019-05-02T11:44:12.142Z,35.52
2019-05-02T11:46:43.052Z,31.40
2019-05-02T11:49:12.271Z,33.83
2019-05-02T11:51:42.173Z,32.98
2019-05-02T11:54:12.714Z,31.40
2019-05-02T11:56:48.223Z,34.40
2019-05-02T11:59:14.425Z,31.68
2019-05-02T12:01:42.688Z,29.15
2019-05-02T12:04:12.973Z,26.37
2019-05-02T12:06:42.242Z,29.77
2019-05-02T12:09:13.302Z,28.30
2019-05-02T12:11:41.862Z,30.15
2019-05-02T12:14:12.303Z,28.70
2019-05-02T12:16:40.639Z,31.17
2019-05-02T12:19:12.122Z,27.37
2019-05-02T12:21:39.326Z,28.27
2019-05-02T12:24:07.933Z,27.98
2019-05-02T12:26:36.403Z,26.23
2019-05-02T12:29:05.086Z,30.20
2019-05-02T12:31:34.772Z,27.87
2019-05-02T12:34:04.370Z,28.17
2019-05-02T12:36:33.441Z,25.92
2019-05-02T12:39:02.476Z,28.83
2019-05-02T12:41:33.133Z,30.47
2019-05-02T12:44:02.282Z,34.33
2019-05-02T12:46:31.791Z,30.32
2019-05-02T12:49:00.121Z,31.40
2019-05-02T12:51:28.342Z,29.23
2019-05-02T12:53:56.562Z,32.17
2019-05-02T12:56:25.128Z,30.53
2019-05-02T12:58:53.619Z,26.75
2019-05-02T13:01:22.107Z,28.65
2019-05-02T13:03:52.090Z,33.42
2019-05-02T13:06:21.986Z,29.10
2019-05-02T13:08:52.522Z,28.73
2019-05-02T13:11:42.169Z,29.27
2019-05-02T13:14:16.773Z,29.52
2019-05-02T13:16:40.034Z,27.80
2019-05-02T13:19:09.086Z,27.07
2019-05-02T13:21:44.996Z,26.10
2019-05-02T13:24:30.121Z,25.95
2019-05-02T13:26:59.723Z,25.62
2019-05-02T13:29:29.330Z,26.37
2019-05-02T13:31:59.176Z,26.17
2019-05-02T13:34:31.806Z,19.67
2019-05-02T13:37:02.631Z,21.50
2019-05-02T13:39:32.688Z,20.43
2019-05-02T13:42:01.734Z,21.50
2019-05-02T13:44:32.681Z,20.90
2019-05-02T13:47:02.739Z,18.55
2019-05-02T13:49:32.432Z,18.10
2019-05-02T13:52:02.507Z,18.10
2019-05-02T13:54:33.075Z,17.15
2019-05-02T13:57:03.106Z,15.00
2019-05-02T13:59:33.605Z,15.00
2019-05-02T14:02:02.867Z,15.88
2019-05-02T14:04:32.667Z,14.03
2019-05-02T14:07:02.999Z,15.78
2019-05-02T14:09:32.703Z,13.05
2019-05-02T14:12:05.206Z,13.83
2019-05-02T14:14:33.435Z,15.07
2019-05-02T14:17:03.019Z,14.30
2019-05-02T14:19:31.892Z,12.13
2019-05-02T14:22:00.232Z,14.30
2019-05-02T14:24:28.458Z,13.38
2019-05-02T14:26:56.974Z,15.03
2019-05-02T14:29:25.208Z,13.43
2019-05-02T14:31:53.842Z,13.58
2019-05-02T14:34:40.133Z,14.15
2019-05-02T14:37:08.353Z,14.60
2019-05-02T14:39:36.569Z,14.53
2019-05-02T14:42:04.952Z,11.57
2019-05-02T14:45:01.521Z,13.55
2019-05-02T14:47:03.668Z,11.68
2019-05-02T14:49:32.262Z,9.90
2019-05-02T14:52:02.954Z,14.13
2019-05-02T14:54:32.441Z,12.58
2019-05-02T14:57:08.191Z,11.70
2019-05-02T14:59:36.392Z,12.82
2019-05-02T15:02:07.695Z,10.32
2019-05-02T15:04:38.177Z,15.55
2019-05-02T15:07:06.264Z,11.73
2019-05-02T15:09:36.376Z,11.65
2019-05-02T15:12:13.998Z,12.37
2019-05-02T15:14:34.678Z,11.00
2019-05-02T15:17:03.219Z,13.58
2019-05-02T15:19:33.003Z,12.65
2019-05-02T15:22:02.271Z,10.75
2019-05-02T15:24:33.282Z,9.43
2019-05-02T15:27:05.571Z,9.50
2019-05-02T15:29:32.111Z,10.43
2019-05-02T15:32:05.967Z,9.25
2019-05-02T15:34:46.278Z,9.63
2019-05-02T15:37:09.216Z,12.50
2019-05-02T15:42:07.360Z,15.48
2019-05-02T15:44:35.906Z,12.03
2019-05-02T15:47:06.859Z,12.80
2019-05-02T15:49:36.569Z,11.65
2019-05-02T15:52:05.711Z,11.08
2019-05-02T15:54:33.963Z,11.43
2019-05-02T15:57:05.436Z,8.93
2019-05-02T15:59:37.517Z,10.75
2019-05-02T16:02:05.933Z,9.58
2019-05-02T16:04:35.786Z,12.93
2019-05-02T16:07:06.954Z,11.03
2019-05-02T16:09:33.968Z,13.43
2019-05-02T16:12:03.123Z,12.98
2019-05-02T16:14:35.722Z,7.97
2019-05-02T16:17:03.814Z,7.60
2019-05-02T16:19:33.315Z,5.70
2019-05-02T16:22:06.848Z,5.45
2019-05-02T16:24:33.915Z,4.53
2019-05-02T16:27:02.164Z,4.47
2019-05-02T16:29:31.852Z,5.47
2019-05-02T16:32:08.076Z,3.92
2019-05-02T16:34:38.207Z,3.83
2019-05-02T16:37:13.296Z,7.08
2019-05-02T16:39:42.526Z,5.05
2019-05-02T16:42:12.440Z,6.67
2019-05-02T16:44:42.948Z,6.20
2019-05-02T16:47:13.641Z,4.53
2019-05-02T16:49:41.872Z,4.12
2019-05-02T16:52:10.229Z,3.85
2019-05-02T16:54:41.614Z,4.60
2019-05-02T16:57:08.400Z,3.87
2019-05-02T16:59:37.521Z,5.58
2019-05-02T17:02:08.026Z,6.20
2019-05-02T17:04:37.367Z,7.42
2019-05-02T17:07:07.324Z,38.13
2019-05-02T17:09:38.793Z,47.13
2019-05-02T17:12:11.945Z,22.60
2019-05-02T17:14:38.349Z,13.25
2019-05-02T17:17:06.647Z,15.53
2019-05-02T17:19:34.986Z,13.08
2019-05-02T17:22:03.414Z,15.85
2019-05-02T17:24:32.292Z,15.20
2019-05-02T17:27:02.515Z,15.58
2019-05-02T17:29:31.746Z,12.07
2019-05-02T17:32:02.061Z,9.23
2019-05-02T17:34:32.577Z,9.23
2019-05-02T17:37:06.296Z,10.68
2019-05-02T17:39:29.973Z,12.35
2019-05-02T17:42:00.462Z,9.58
2019-05-02T17:44:28.468Z,8.23
2019-05-02T17:46:58.340Z,9.30
2019-05-02T17:49:34.869Z,7.70
2019-05-02T17:52:19.085Z,11.48
2019-05-02T17:54:44.591Z,9.85
2019-05-02T17:57:12.841Z,9.98
2019-05-02T17:59:42.229Z,11.08
2019-05-02T18:02:12.366Z,10.38
2019-05-02T18:04:41.941Z,13.38
2019-05-02T18:07:11.688Z,11.90
2019-05-02T18:09:41.862Z,10.95
2019-05-02T18:12:12.636Z,14.55
2019-05-02T18:14:42.117Z,11.20
2019-05-02T18:17:12.625Z,10.03
2019-05-02T18:19:42.544Z,9.80
2019-05-02T18:22:21.097Z,12.43
2019-05-02T18:24:44.753Z,13.95
2019-05-02T18:27:12.725Z,10.93
2019-05-02T18:29:42.659Z,11.15
2019-05-02T18:32:12.758Z,13.75
2019-05-02T18:34:41.834Z,13.30
2019-05-02T18:37:10.207Z,11.12
2019-05-02T18:39:44.733Z,12.07
2019-05-02T18:42:09.255Z,11.53
2019-05-02T18:44:37.749Z,10.23
2019-05-02T18:47:05.965Z,12.28
2019-05-02T18:49:34.239Z,10.23
2019-05-02T18:52:02.884Z,11.57
2019-05-02T18:54:31.089Z,10.63
2019-05-02T18:56:59.455Z,12.17
2019-05-02T18:59:28.030Z,11.87
2019-05-02T19:01:59.359Z,15.45
2019-05-02T19:04:35.277Z,10.72
2019-05-02T19:06:56.210Z,11.78
2019-05-02T19:09:29.891Z,11.08
2019-05-02T19:12:05.022Z,15.68
2019-05-02T19:14:25.914Z,16.33
2019-05-02T19:16:58.091Z,14.30
2019-05-02T19:19:27.422Z,16.05
2019-05-02T19:21:54.279Z,11.93
2019-05-02T19:24:27.416Z,12.85
2019-05-02T19:26:56.359Z,14.75
2019-05-02T19:29:28.968Z,11.50
2019-05-02T19:31:57.444Z,14.03
2019-05-02T19:34:27.075Z,16.37
2019-05-02T19:36:58.031Z,12.82
2019-05-02T19:39:26.183Z,13.35
2019-05-02T19:41:54.382Z,11.05
2019-05-02T19:44:29.138Z,11.13
2019-05-02T19:46:53.118Z,13.70
2019-05-02T19:49:23.095Z,12.27
2019-05-02T19:51:56.502Z,15.18
2019-05-02T19:54:22.020Z,14.40
2019-05-02T19:56:52.184Z,10.98
2019-05-02T19:59:24.588Z,11.73
2019-05-02T20:01:52.208Z,11.50
2019-05-02T20:04:22.217Z,13.95
2019-05-02T20:06:50.559Z,11.53
2019-05-02T20:09:19.055Z,9.90
2019-05-02T20:11:47.339Z,13.55
2019-05-02T20:14:15.669Z,11.75
2019-05-02T20:16:46.699Z,9.60
2019-05-02T20:19:17.312Z,10.50
2019-05-02T20:21:49.185Z,12.63
2019-05-02T20:24:19.432Z,8.23
2019-05-02T20:26:52.502Z,8.15
2019-05-02T20:29:17.361Z,12.55
2019-05-02T20:31:45.664Z,10.65
2019-05-02T20:34:13.876Z,11.45
2019-05-02T20:36:42.587Z,11.73
2019-05-02T20:39:11.885Z,12.15
2019-05-02T20:41:41.968Z,11.93
2019-05-02T20:44:12.012Z,8.50
2019-05-02T20:46:42.026Z,13.40
2019-05-02T20:49:10.164Z,15.10
2019-05-02T20:51:38.727Z,9.73
2019-05-02T20:54:07.355Z,11.10
2019-05-02T20:56:35.689Z,12.85
2019-05-02T20:59:04.512Z,10.80
2019-05-02T21:01:32.767Z,9.60
2019-05-02T21:04:02.719Z,12.13
2019-05-02T21:06:40.829Z,10.50
2019-05-02T21:09:21.783Z,8.55
2019-05-02T21:11:54.338Z,9.20
2019-05-02T21:14:22.536Z,12.23
2019-05-02T21:16:51.084Z,8.53
2019-05-02T21:19:21.634Z,9.30
2019-05-02T21:21:49.471Z,11.75
2019-05-02T21:24:17.680Z,10.30
2019-05-02T21:26:45.884Z,8.33
2019-05-02T21:29:14.404Z,8.95
2019-05-02T21:31:42.919Z,12.33
2019-05-02T21:34:11.767Z,9.68
2019-05-02T21:36:40.080Z,11.48
2019-05-02T21:39:11.921Z,12.75
2019-05-02T21:41:42.014Z,8.35
2019-05-02T21:44:10.431Z,13.88
2019-05-02T21:46:38.632Z,9.70
2019-05-02T21:49:06.914Z,15.10
2019-05-02T21:51:39.247Z,9.55
2019-05-02T21:54:17.912Z,12.00
2019-05-02T21:56:53.501Z,9.90
2019-05-02T21:59:22.487Z,13.10
2019-05-02T22:01:52.637Z,9.73
2019-05-02T22:04:22.468Z,13.65
2019-05-02T22:06:52.206Z,13.30
2019-05-02T22:09:22.844Z,12.68
2019-05-02T22:11:52.004Z,13.03
2019-05-02T22:14:22.308Z,10.25
2019-05-02T22:16:52.981Z,7.80
2019-05-02T22:19:21.200Z,12.45
2019-05-02T22:21:49.729Z,11.28
2019-05-02T22:24:17.962Z,13.38
2019-05-02T22:26:46.189Z,12.60
2019-05-02T22:29:15.444Z,10.38
2019-05-02T22:31:43.651Z,11.00
2019-05-02T22:34:12.853Z,10.23
2019-05-02T22:36:41.723Z,5.53
2019-05-02T22:39:22.125Z,12.10
2019-05-02T22:41:52.474Z,11.22
2019-05-02T22:44:21.886Z,7.97
2019-05-02T22:46:51.952Z,10.90
2019-05-02T22:49:22.343Z,8.63
2019-05-02T22:51:50.075Z,15.50
2019-05-02T22:54:27.856Z,14.43
2019-05-02T22:56:48.412Z,12.70
2019-05-02T22:59:16.629Z,11.50
2019-05-02T23:01:44.877Z,10.18
2019-05-02T23:04:13.072Z,10.45
2019-05-02T23:06:43.976Z,9.48
2019-05-02T23:09:12.723Z,11.18
2019-05-02T23:11:42.505Z,12.20
2019-05-02T23:14:11.360Z,11.25
2019-05-02T23:16:42.376Z,14.75
2019-05-02T23:19:12.049Z,7.95
2019-05-02T23:21:41.921Z,13.53
2019-05-02T23:24:14.490Z,14.85
2019-05-02T23:26:43.804Z,10.30
2019-05-02T23:29:13.710Z,11.15
2019-05-02T23:31:42.258Z,14.58
2019-05-02T23:34:10.620Z,11.20
2019-05-02T23:36:38.866Z,10.20
2019-05-02T23:39:07.854Z,11.45
2019-05-02T23:41:36.206Z,11.78
2019-05-02T23:44:04.404Z,10.58
2019-05-02T23:46:32.992Z,16.05
2019-05-02T23:49:02.040Z,17.17
2019-05-02T23:51:32.144Z,14.78
2019-05-02T23:54:02.074Z,10.35
2019-05-02T23:56:32.283Z,14.93
2019-05-02T23:59:02.535Z,12.35
